sensor_id;sensor_type;location;lat;lon;timestamp;P1;durP1;ratioP1;P2;durP2;ratioP2
55078;SDS011;55187;49.496;6.010;2022-08-19T00:01:28;11.60;;;6.93;;
55078;SDS011;55187;49.496;6.010;2022-08-19T00:03:59;11.00;;;6.80;;
55078;SDS011;55187;49.496;6.010;2022-08-19T00:06:28;12.10;;;7.40;;
55078;SDS011;55187;49.496;6.010;2022-08-19T00:08:55;13.07;;;7.82;;
55078;SDS011;55187;49.496;6.010;2022-08-19T00:11:23;12.10;;;6.85;;
55078;SDS011;55187;49.496;6.010;2022-08-19T00:13:49;10.07;;;7.03;;
55078;SDS011;55187;49.496;6.010;2022-08-19T00:16:16;10.63;;;6.50;;
55078;SDS011;55187;49.496;6.010;2022-08-19T00:18:45;9.98;;;7.55;;
55078;SDS011;55187;49.496;6.010;2022-08-19T00:21:12;11.75;;;8.07;;
55078;SDS011;55187;49.496;6.010;2022-08-19T00:23:38;13.00;;;7.35;;
55078;SDS011;55187;49.496;6.010;2022-08-19T00:26:05;11.15;;;7.35;;
55078;SDS011;55187;49.496;6.010;2022-08-19T00:28:32;12.52;;;7.00;;
55078;SDS011;55187;49.496;6.010;2022-08-19T00:30:59;13.05;;;8.00;;
55078;SDS011;55187;49.496;6.010;2022-08-19T00:33:25;11.38;;;7.30;;
55078;SDS011;55187;49.496;6.010;2022-08-19T00:35:51;14.95;;;7.97;;
55078;SDS011;55187;49.496;6.010;2022-08-19T00:38:18;10.57;;;7.65;;
55078;SDS011;55187;49.496;6.010;2022-08-19T00:40:48;11.70;;;8.13;;
55078;SDS011;55187;49.496;6.010;2022-08-19T00:43:14;11.00;;;7.47;;
55078;SDS011;55187;49.496;6.010;2022-08-19T00:45:45;13.77;;;7.35;;
55078;SDS011;55187;49.496;6.010;2022-08-19T00:48:11;10.77;;;7.32;;
55078;SDS011;55187;49.496;6.010;2022-08-19T00:50:39;11.07;;;7.28;;
55078;SDS011;55187;49.496;6.010;2022-08-19T00:53:09;10.35;;;6.78;;
55078;SDS011;55187;49.496;6.010;2022-08-19T00:55:37;11.48;;;7.07;;
55078;SDS011;55187;49.496;6.010;2022-08-19T00:58:09;12.80;;;7.85;;
55078;SDS011;55187;49.496;6.010;2022-08-19T01:00:39;8.85;;;7.00;;
55078;SDS011;55187;49.496;6.010;2022-08-19T01:03:12;10.35;;;7.07;;
55078;SDS011;55187;49.496;6.010;2022-08-19T01:05:41;10.30;;;7.07;;
55078;SDS011;55187;49.496;6.010;2022-08-19T01:08:09;10.75;;;7.10;;
55078;SDS011;55187;49.496;6.010;2022-08-19T01:10:37;12.18;;;7.80;;
55078;SDS011;55187;49.496;6.010;2022-08-19T01:13:07;10.80;;;7.43;;
55078;SDS011;55187;49.496;6.010;2022-08-19T01:15:38;12.50;;;7.75;;
55078;SDS011;55187;49.496;6.010;2022-08-19T01:18:08;11.90;;;7.70;;
55078;SDS011;55187;49.496;6.010;2022-08-19T01:20:38;11.30;;;8.25;;
55078;SDS011;55187;49.496;6.010;2022-08-19T01:23:05;11.25;;;7.88;;
55078;SDS011;55187;49.496;6.010;2022-08-19T01:25:39;12.00;;;8.48;;
55078;SDS011;55187;49.496;6.010;2022-08-19T01:28:14;11.95;;;7.55;;
55078;SDS011;55187;49.496;6.010;2022-08-19T01:30:43;12.38;;;8.55;;
55078;SDS011;55187;49.496;6.010;2022-08-19T01:33:10;12.90;;;8.75;;
55078;SDS011;55187;49.496;6.010;2022-08-19T01:35:37;11.55;;;8.18;;
55078;SDS011;55187;49.496;6.010;2022-08-19T01:38:04;11.25;;;7.88;;
55078;SDS011;55187;49.496;6.010;2022-08-19T01:40:34;11.80;;;7.28;;
55078;SDS011;55187;49.496;6.010;2022-08-19T01:43:04;12.23;;;8.63;;
55078;SDS011;55187;49.496;6.010;2022-08-19T01:45:32;14.32;;;9.23;;
55078;SDS011;55187;49.496;6.010;2022-08-19T01:48:00;12.68;;;9.18;;
55078;SDS011;55187;49.496;6.010;2022-08-19T01:50:26;11.65;;;8.30;;
55078;SDS011;55187;49.496;6.010;2022-08-19T01:52:53;12.82;;;7.30;;
55078;SDS011;55187;49.496;6.010;2022-08-19T01:55:20;13.15;;;7.55;;
55078;SDS011;55187;49.496;6.010;2022-08-19T01:57:50;12.00;;;7.93;;
55078;SDS011;55187;49.496;6.010;2022-08-19T02:00:23;14.13;;;8.15;;
55078;SDS011;55187;49.496;6.010;2022-08-19T02:02:51;10.88;;;7.20;;
55078;SDS011;55187;49.496;6.010;2022-08-19T02:05:17;12.90;;;8.68;;
55078;SDS011;55187;49.496;6.010;2022-08-19T02:07:47;12.88;;;7.95;;
55078;SDS011;55187;49.496;6.010;2022-08-19T02:10:15;12.82;;;7.50;;
55078;SDS011;55187;49.496;6.010;2022-08-19T02:12:45;13.43;;;8.23;;
55078;SDS011;55187;49.496;6.010;2022-08-19T02:15:11;12.50;;;7.82;;
55078;SDS011;55187;49.496;6.010;2022-08-19T02:17:38;15.13;;;8.55;;
55078;SDS011;55187;49.496;6.010;2022-08-19T02:20:06;18.88;;;9.65;;
55078;SDS011;55187;49.496;6.010;2022-08-19T02:22:33;14.45;;;8.77;;
55078;SDS011;55187;49.496;6.010;2022-08-19T02:24:59;14.45;;;9.10;;
55078;SDS011;55187;49.496;6.010;2022-08-19T02:27:26;14.55;;;8.30;;
55078;SDS011;55187;49.496;6.010;2022-08-19T02:29:52;15.45;;;9.35;;
55078;SDS011;55187;49.496;6.010;2022-08-19T02:32:19;14.35;;;8.45;;
55078;SDS011;55187;49.496;6.010;2022-08-19T02:34:46;14.60;;;8.25;;
55078;SDS011;55187;49.496;6.010;2022-08-19T02:37:13;21.13;;;9.65;;
55078;SDS011;55187;49.496;6.010;2022-08-19T02:39:43;18.45;;;8.77;;
55078;SDS011;55187;49.496;6.010;2022-08-19T02:42:09;16.23;;;9.65;;
55078;SDS011;55187;49.496;6.010;2022-08-19T02:44:35;15.23;;;10.25;;
55078;SDS011;55187;49.496;6.010;2022-08-19T02:47:01;14.57;;;9.35;;
55078;SDS011;55187;49.496;6.010;2022-08-19T02:49:28;14.35;;;9.52;;
55078;SDS011;55187;49.496;6.010;2022-08-19T02:51:57;11.38;;;9.18;;
55078;SDS011;55187;49.496;6.010;2022-08-19T02:54:23;13.73;;;9.13;;
55078;SDS011;55187;49.496;6.010;2022-08-19T02:56:49;17.92;;;9.77;;
55078;SDS011;55187;49.496;6.010;2022-08-19T02:59:16;17.65;;;9.95;;
55078;SDS011;55187;49.496;6.010;2022-08-19T03:01:42;14.70;;;10.13;;
55078;SDS011;55187;49.496;6.010;2022-08-19T03:04:09;16.02;;;9.38;;
55078;SDS011;55187;49.496;6.010;2022-08-19T03:06:38;18.60;;;9.32;;
55078;SDS011;55187;49.496;6.010;2022-08-19T03:09:06;13.48;;;8.48;;
55078;SDS011;55187;49.496;6.010;2022-08-19T03:11:32;18.35;;;10.65;;
55078;SDS011;55187;49.496;6.010;2022-08-19T03:13:59;15.23;;;10.25;;
55078;SDS011;55187;49.496;6.010;2022-08-19T03:16:28;15.52;;;9.43;;
55078;SDS011;55187;49.496;6.010;2022-08-19T03:18:56;15.52;;;9.88;;
55078;SDS011;55187;49.496;6.010;2022-08-19T03:21:26;18.35;;;10.70;;
55078;SDS011;55187;49.496;6.010;2022-08-19T03:23:54;17.92;;;10.65;;
55078;SDS011;55187;49.496;6.010;2022-08-19T03:26:21;20.38;;;9.95;;
55078;SDS011;55187;49.496;6.010;2022-08-19T03:28:47;15.75;;;10.05;;
55078;SDS011;55187;49.496;6.010;2022-08-19T03:31:17;18.00;;;10.20;;
55078;SDS011;55187;49.496;6.010;2022-08-19T03:33:45;17.98;;;10.50;;
55078;SDS011;55187;49.496;6.010;2022-08-19T03:36:13;14.05;;;9.68;;
55078;SDS011;55187;49.496;6.010;2022-08-19T03:38:46;15.05;;;8.95;;
55078;SDS011;55187;49.496;6.010;2022-08-19T03:41:15;14.45;;;9.50;;
55078;SDS011;55187;49.496;6.010;2022-08-19T03:43:47;19.63;;;9.48;;
55078;SDS011;55187;49.496;6.010;2022-08-19T03:46:15;21.55;;;10.00;;
55078;SDS011;55187;49.496;6.010;2022-08-19T03:48:46;17.20;;;9.73;;
55078;SDS011;55187;49.496;6.010;2022-08-19T03:51:15;15.77;;;10.05;;
55078;SDS011;55187;49.496;6.010;2022-08-19T03:53:44;19.00;;;10.60;;
55078;SDS011;55187;49.496;6.010;2022-08-19T03:56:11;13.15;;;9.32;;
55078;SDS011;55187;49.496;6.010;2022-08-19T03:58:39;18.15;;;10.60;;
55078;SDS011;55187;49.496;6.010;2022-08-19T04:01:09;14.93;;;9.02;;
55078;SDS011;55187;49.496;6.010;2022-08-19T04:03:39;14.30;;;9.43;;
55078;SDS011;55187;49.496;6.010;2022-08-19T04:06:12;19.60;;;10.48;;
55078;SDS011;55187;49.496;6.010;2022-08-19T04:08:41;20.52;;;10.73;;
55078;SDS011;55187;49.496;6.010;2022-08-19T04:11:09;17.73;;;11.38;;
55078;SDS011;55187;49.496;6.010;2022-08-19T04:13:37;16.30;;;9.90;;
55078;SDS011;55187;49.496;6.010;2022-08-19T04:16:04;17.00;;;10.73;;
55078;SDS011;55187;49.496;6.010;2022-08-19T04:18:35;18.85;;;10.85;;
55078;SDS011;55187;49.496;6.010;2022-08-19T04:21:02;15.98;;;9.80;;
55078;SDS011;55187;49.496;6.010;2022-08-19T04:23:30;18.42;;;10.27;;
55078;SDS011;55187;49.496;6.010;2022-08-19T04:25:57;16.20;;;9.82;;
55078;SDS011;55187;49.496;6.010;2022-08-19T04:28:24;18.00;;;10.38;;
55078;SDS011;55187;49.496;6.010;2022-08-19T04:30:51;17.13;;;9.82;;
55078;SDS011;55187;49.496;6.010;2022-08-19T04:33:20;13.45;;;9.35;;
55078;SDS011;55187;49.496;6.010;2022-08-19T04:35:49;17.10;;;11.07;;
55078;SDS011;55187;49.496;6.010;2022-08-19T04:38:21;17.63;;;10.93;;
55078;SDS011;55187;49.496;6.010;2022-08-19T04:40:49;15.70;;;9.57;;
55078;SDS011;55187;49.496;6.010;2022-08-19T04:43:20;16.52;;;9.85;;
55078;SDS011;55187;49.496;6.010;2022-08-19T04:45:46;15.43;;;10.02;;
55078;SDS011;55187;49.496;6.010;2022-08-19T04:48:13;21.33;;;11.55;;
55078;SDS011;55187;49.496;6.010;2022-08-19T04:50:40;19.77;;;11.63;;
55078;SDS011;55187;49.496;6.010;2022-08-19T04:53:08;15.82;;;9.23;;
55078;SDS011;55187;49.496;6.010;2022-08-19T04:55:38;17.90;;;10.40;;
55078;SDS011;55187;49.496;6.010;2022-08-19T04:58:05;21.88;;;11.27;;
55078;SDS011;55187;49.496;6.010;2022-08-19T05:00:37;26.02;;;11.23;;
55078;SDS011;55187;49.496;6.010;2022-08-19T05:03:05;15.07;;;10.23;;
55078;SDS011;55187;49.496;6.010;2022-08-19T05:05:31;18.23;;;10.73;;
55078;SDS011;55187;49.496;6.010;2022-08-19T05:07:58;14.15;;;9.43;;
55078;SDS011;55187;49.496;6.010;2022-08-19T05:10:24;15.98;;;10.63;;
55078;SDS011;55187;49.496;6.010;2022-08-19T05:12:50;15.57;;;9.90;;
55078;SDS011;55187;49.496;6.010;2022-08-19T05:15:17;15.82;;;11.15;;
55078;SDS011;55187;49.496;6.010;2022-08-19T05:17:45;17.60;;;9.95;;
55078;SDS011;55187;49.496;6.010;2022-08-19T05:20:31;19.42;;;11.27;;
55078;SDS011;55187;49.496;6.010;2022-08-19T05:23:10;18.80;;;11.13;;
55078;SDS011;55187;49.496;6.010;2022-08-19T05:25:42;23.95;;;11.05;;
55078;SDS011;55187;49.496;6.010;2022-08-19T05:28:10;19.70;;;10.77;;
55078;SDS011;55187;49.496;6.010;2022-08-19T05:30:36;14.82;;;9.68;;
55078;SDS011;55187;49.496;6.010;2022-08-19T05:33:02;17.52;;;10.50;;
55078;SDS011;55187;49.496;6.010;2022-08-19T05:35:29;17.60;;;10.15;;
55078;SDS011;55187;49.496;6.010;2022-08-19T05:37:56;17.25;;;9.45;;
55078;SDS011;55187;49.496;6.010;2022-08-19T05:40:22;17.27;;;10.38;;
55078;SDS011;55187;49.496;6.010;2022-08-19T05:42:49;15.85;;;10.85;;
55078;SDS011;55187;49.496;6.010;2022-08-19T05:45:15;16.75;;;10.10;;
55078;SDS011;55187;49.496;6.010;2022-08-19T05:47:42;16.17;;;9.35;;
55078;SDS011;55187;49.496;6.010;2022-08-19T05:50:08;19.58;;;10.93;;
55078;SDS011;55187;49.496;6.010;2022-08-19T05:52:36;16.77;;;9.70;;
55078;SDS011;55187;49.496;6.010;2022-08-19T05:55:04;13.32;;;9.52;;
55078;SDS011;55187;49.496;6.010;2022-08-19T05:57:31;16.58;;;9.68;;
55078;SDS011;55187;49.496;6.010;2022-08-19T05:59:57;12.73;;;8.88;;
55078;SDS011;55187;49.496;6.010;2022-08-19T06:02:26;14.82;;;8.55;;
55078;SDS011;55187;49.496;6.010;2022-08-19T06:04:53;22.60;;;11.18;;
55078;SDS011;55187;49.496;6.010;2022-08-19T06:07:19;16.83;;;11.35;;
55078;SDS011;55187;49.496;6.010;2022-08-19T06:09:46;16.75;;;10.57;;
55078;SDS011;55187;49.496;6.010;2022-08-19T06:12:12;17.35;;;10.40;;
55078;SDS011;55187;49.496;6.010;2022-08-19T06:14:39;18.90;;;10.73;;
55078;SDS011;55187;49.496;6.010;2022-08-19T06:17:06;14.57;;;10.02;;
55078;SDS011;55187;49.496;6.010;2022-08-19T06:19:32;21.50;;;11.63;;
55078;SDS011;55187;49.496;6.010;2022-08-19T06:21:59;17.15;;;10.40;;
55078;SDS011;55187;49.496;6.010;2022-08-19T06:24:27;18.02;;;9.77;;
55078;SDS011;55187;49.496;6.010;2022-08-19T06:26:55;25.50;;;12.18;;
55078;SDS011;55187;49.496;6.010;2022-08-19T06:29:23;25.40;;;11.73;;
55078;SDS011;55187;49.496;6.010;2022-08-19T06:31:52;20.38;;;11.48;;
55078;SDS011;55187;49.496;6.010;2022-08-19T06:34:20;16.58;;;9.23;;
55078;SDS011;55187;49.496;6.010;2022-08-19T06:36:48;20.55;;;11.13;;
55078;SDS011;55187;49.496;6.010;2022-08-19T06:39:17;24.67;;;11.93;;
55078;SDS011;55187;49.496;6.010;2022-08-19T06:41:47;22.23;;;13.35;;
55078;SDS011;55187;49.496;6.010;2022-08-19T06:44:18;24.80;;;13.90;;
55078;SDS011;55187;49.496;6.010;2022-08-19T06:46:46;25.00;;;12.00;;
55078;SDS011;55187;49.496;6.010;2022-08-19T06:49:13;20.67;;;11.00;;
55078;SDS011;55187;49.496;6.010;2022-08-19T06:51:44;23.92;;;13.30;;
55078;SDS011;55187;49.496;6.010;2022-08-19T06:54:14;20.67;;;12.85;;
55078;SDS011;55187;49.496;6.010;2022-08-19T06:56:44;15.55;;;10.52;;
55078;SDS011;55187;49.496;6.010;2022-08-19T06:59:13;17.75;;;12.38;;
55078;SDS011;55187;49.496;6.010;2022-08-19T07:01:45;17.95;;;11.73;;
55078;SDS011;55187;49.496;6.010;2022-08-19T07:04:15;15.65;;;12.18;;
55078;SDS011;55187;49.496;6.010;2022-08-19T07:06:43;15.73;;;10.18;;
55078;SDS011;55187;49.496;6.010;2022-08-19T07:09:12;12.30;;;9.15;;
55078;SDS011;55187;49.496;6.010;2022-08-19T07:11:44;10.77;;;8.15;;
55078;SDS011;55187;49.496;6.010;2022-08-19T07:14:12;21.30;;;12.30;;
55078;SDS011;55187;49.496;6.010;2022-08-19T07:16:39;14.45;;;10.90;;
55078;SDS011;55187;49.496;6.010;2022-08-19T07:19:06;17.30;;;12.27;;
55078;SDS011;55187;49.496;6.010;2022-08-19T07:21:33;17.60;;;13.32;;
55078;SDS011;55187;49.496;6.010;2022-08-19T07:24:01;18.52;;;12.65;;
55078;SDS011;55187;49.496;6.010;2022-08-19T07:26:29;12.90;;;9.10;;
55078;SDS011;55187;49.496;6.010;2022-08-19T07:28:58;18.15;;;12.90;;
55078;SDS011;55187;49.496;6.010;2022-08-19T07:31:26;17.05;;;12.60;;
55078;SDS011;55187;49.496;6.010;2022-08-19T07:33:54;16.77;;;12.68;;
55078;SDS011;55187;49.496;6.010;2022-08-19T07:36:24;19.88;;;13.65;;
55078;SDS011;55187;49.496;6.010;2022-08-19T07:38:57;16.30;;;10.73;;
55078;SDS011;55187;49.496;6.010;2022-08-19T07:41:25;17.77;;;14.60;;
55078;SDS011;55187;49.496;6.010;2022-08-19T07:43:55;15.55;;;11.15;;
55078;SDS011;55187;49.496;6.010;2022-08-19T07:46:31;16.70;;;12.32;;
55078;SDS011;55187;49.496;6.010;2022-08-19T07:49:00;12.02;;;9.20;;
55078;SDS011;55187;49.496;6.010;2022-08-19T07:51:27;23.17;;;15.57;;
55078;SDS011;55187;49.496;6.010;2022-08-19T07:53:55;15.75;;;12.25;;
55078;SDS011;55187;49.496;6.010;2022-08-19T07:56:23;21.75;;;13.75;;
55078;SDS011;55187;49.496;6.010;2022-08-19T07:58:52;12.70;;;9.80;;
55078;SDS011;55187;49.496;6.010;2022-08-19T08:01:20;13.63;;;8.13;;
55078;SDS011;55187;49.496;6.010;2022-08-19T08:03:51;15.18;;;10.43;;
55078;SDS011;55187;49.496;6.010;2022-08-19T08:06:30;10.57;;;7.60;;
55078;SDS011;55187;49.496;6.010;2022-08-19T08:09:09;14.23;;;9.82;;
55078;SDS011;55187;49.496;6.010;2022-08-19T08:11:37;11.07;;;8.77;;
55078;SDS011;55187;49.496;6.010;2022-08-19T08:14:07;15.75;;;11.25;;
55078;SDS011;55187;49.496;6.010;2022-08-19T08:16:38;17.08;;;12.60;;
55078;SDS011;55187;49.496;6.010;2022-08-19T08:19:07;10.95;;;9.38;;
55078;SDS011;55187;49.496;6.010;2022-08-19T08:21:44;19.50;;;14.55;;
55078;SDS011;55187;49.496;6.010;2022-08-19T08:24:10;17.77;;;14.70;;
55078;SDS011;55187;49.496;6.010;2022-08-19T08:26:38;20.92;;;15.65;;
55078;SDS011;55187;49.496;6.010;2022-08-19T08:29:05;18.02;;;13.95;;
55078;SDS011;55187;49.496;6.010;2022-08-19T08:31:36;15.05;;;10.43;;
55078;SDS011;55187;49.496;6.010;2022-08-19T08:34:02;15.93;;;12.48;;
55078;SDS011;55187;49.496;6.010;2022-08-19T08:36:29;16.38;;;11.95;;
55078;SDS011;55187;49.496;6.010;2022-08-19T08:39:00;17.13;;;12.60;;
55078;SDS011;55187;49.496;6.010;2022-08-19T08:41:37;19.60;;;14.05;;
55078;SDS011;55187;49.496;6.010;2022-08-19T08:44:25;22.95;;;14.23;;
55078;SDS011;55187;49.496;6.010;2022-08-19T08:47:09;16.73;;;12.30;;
55078;SDS011;55187;49.496;6.010;2022-08-19T08:52:24;17.48;;;12.80;;
55078;SDS011;55187;49.496;6.010;2022-08-19T08:54:55;13.97;;;10.10;;
55078;SDS011;55187;49.496;6.010;2022-08-19T09:00:24;11.85;;;8.65;;
55078;SDS011;55187;49.496;6.010;2022-08-19T09:02:57;11.50;;;8.45;;
55078;SDS011;55187;49.496;6.010;2022-08-19T09:05:26;14.38;;;10.50;;
55078;SDS011;55187;49.496;6.010;2022-08-19T09:10:49;15.48;;;11.20;;
55078;SDS011;55187;49.496;6.010;2022-08-19T09:13:28;16.88;;;10.85;;
55078;SDS011;55187;49.496;6.010;2022-08-19T09:16:14;16.45;;;10.48;;
55078;SDS011;55187;49.496;6.010;2022-08-19T09:18:50;12.90;;;9.65;;
55078;SDS011;55187;49.496;6.010;2022-08-19T09:21:21;12.00;;;8.55;;
55078;SDS011;55187;49.496;6.010;2022-08-19T09:23:49;14.70;;;9.43;;
55078;SDS011;55187;49.496;6.010;2022-08-19T09:26:16;12.35;;;9.13;;
55078;SDS011;55187;49.496;6.010;2022-08-19T09:28:47;12.05;;;7.18;;
55078;SDS011;55187;49.496;6.010;2022-08-19T09:31:22;10.45;;;6.57;;
55078;SDS011;55187;49.496;6.010;2022-08-19T09:33:51;11.15;;;6.75;;
55078;SDS011;55187;49.496;6.010;2022-08-19T09:36:18;9.52;;;6.82;;
55078;SDS011;55187;49.496;6.010;2022-08-19T09:38:48;10.07;;;6.82;;
55078;SDS011;55187;49.496;6.010;2022-08-19T09:41:16;10.55;;;5.78;;
55078;SDS011;55187;49.496;6.010;2022-08-19T09:43:45;12.82;;;7.95;;
55078;SDS011;55187;49.496;6.010;2022-08-19T09:46:14;10.27;;;6.80;;
55078;SDS011;55187;49.496;6.010;2022-08-19T09:48:42;10.88;;;7.00;;
55078;SDS011;55187;49.496;6.010;2022-08-19T09:51:11;8.40;;;6.55;;
55078;SDS011;55187;49.496;6.010;2022-08-19T09:53:42;7.68;;;5.85;;
55078;SDS011;55187;49.496;6.010;2022-08-19T09:56:12;9.35;;;7.25;;
55078;SDS011;55187;49.496;6.010;2022-08-19T09:58:39;11.30;;;7.82;;
55078;SDS011;55187;49.496;6.010;2022-08-19T10:01:08;16.85;;;10.23;;
55078;SDS011;55187;49.496;6.010;2022-08-19T10:03:36;14.43;;;9.45;;
55078;SDS011;55187;49.496;6.010;2022-08-19T10:06:03;11.80;;;8.90;;
55078;SDS011;55187;49.496;6.010;2022-08-19T10:08:31;12.40;;;9.35;;
55078;SDS011;55187;49.496;6.010;2022-08-19T10:11:01;14.07;;;8.93;;
55078;SDS011;55187;49.496;6.010;2022-08-19T10:13:30;11.85;;;7.28;;
55078;SDS011;55187;49.496;6.010;2022-08-19T10:18:37;12.93;;;7.70;;
55078;SDS011;55187;49.496;6.010;2022-08-19T10:21:11;14.18;;;10.40;;
55078;SDS011;55187;49.496;6.010;2022-08-19T10:23:52;14.10;;;9.68;;
55078;SDS011;55187;49.496;6.010;2022-08-19T10:26:21;16.05;;;8.75;;
55078;SDS011;55187;49.496;6.010;2022-08-19T10:28:49;22.63;;;10.63;;
55078;SDS011;55187;49.496;6.010;2022-08-19T10:31:26;16.65;;;10.43;;
55078;SDS011;55187;49.496;6.010;2022-08-19T10:33:55;21.77;;;10.20;;
55078;SDS011;55187;49.496;6.010;2022-08-19T10:36:30;23.17;;;13.50;;
55078;SDS011;55187;49.496;6.010;2022-08-19T10:38:59;16.70;;;9.57;;
55078;SDS011;55187;49.496;6.010;2022-08-19T10:41:29;11.88;;;9.20;;
55078;SDS011;55187;49.496;6.010;2022-08-19T10:43:59;17.13;;;10.20;;
55078;SDS011;55187;49.496;6.010;2022-08-19T10:46:27;13.85;;;9.20;;
55078;SDS011;55187;49.496;6.010;2022-08-19T10:49:01;17.75;;;11.98;;
55078;SDS011;55187;49.496;6.010;2022-08-19T10:51:30;11.57;;;7.18;;
55078;SDS011;55187;49.496;6.010;2022-08-19T10:54:09;13.13;;;8.18;;
55078;SDS011;55187;49.496;6.010;2022-08-19T10:56:36;11.63;;;7.70;;
55078;SDS011;55187;49.496;6.010;2022-08-19T10:59:15;14.65;;;10.35;;
55078;SDS011;55187;49.496;6.010;2022-08-19T11:01:43;12.50;;;8.00;;
55078;SDS011;55187;49.496;6.010;2022-08-19T11:04:11;13.93;;;8.73;;
55078;SDS011;55187;49.496;6.010;2022-08-19T11:06:40;14.07;;;8.02;;
55078;SDS011;55187;49.496;6.010;2022-08-19T11:09:09;14.43;;;9.50;;
55078;SDS011;55187;49.496;6.010;2022-08-19T11:11:37;15.00;;;10.20;;
55078;SDS011;55187;49.496;6.010;2022-08-19T11:14:07;13.85;;;8.45;;
55078;SDS011;55187;49.496;6.010;2022-08-19T11:16:38;14.18;;;7.70;;
55078;SDS011;55187;49.496;6.010;2022-08-19T11:19:05;6.30;;;4.30;;
55078;SDS011;55187;49.496;6.010;2022-08-19T11:21:35;5.95;;;4.60;;
55078;SDS011;55187;49.496;6.010;2022-08-19T11:24:07;8.73;;;4.70;;
55078;SDS011;55187;49.496;6.010;2022-08-19T11:26:36;7.30;;;5.00;;
55078;SDS011;55187;49.496;6.010;2022-08-19T11:29:03;8.40;;;4.40;;
55078;SDS011;55187;49.496;6.010;2022-08-19T11:31:32;11.18;;;5.95;;
55078;SDS011;55187;49.496;6.010;2022-08-19T11:34:02;10.43;;;5.97;;
55078;SDS011;55187;49.496;6.010;2022-08-19T11:36:30;11.27;;;5.68;;
55078;SDS011;55187;49.496;6.010;2022-08-19T11:39:00;10.88;;;7.57;;
55078;SDS011;55187;49.496;6.010;2022-08-19T11:41:28;10.70;;;6.15;;
55078;SDS011;55187;49.496;6.010;2022-08-19T11:43:54;9.00;;;4.82;;
55078;SDS011;55187;49.496;6.010;2022-08-19T11:46:21;6.70;;;4.05;;
55078;SDS011;55187;49.496;6.010;2022-08-19T11:48:49;7.72;;;4.63;;
55078;SDS011;55187;49.496;6.010;2022-08-19T11:51:17;7.95;;;5.78;;
55078;SDS011;55187;49.496;6.010;2022-08-19T11:53:47;8.05;;;4.72;;
55078;SDS011;55187;49.496;6.010;2022-08-19T11:56:16;6.95;;;4.75;;
55078;SDS011;55187;49.496;6.010;2022-08-19T11:58:44;8.50;;;5.63;;
55078;SDS011;55187;49.496;6.010;2022-08-19T12:01:12;11.52;;;7.05;;
55078;SDS011;55187;49.496;6.010;2022-08-19T12:03:42;9.55;;;5.95;;
55078;SDS011;55187;49.496;6.010;2022-08-19T12:06:10;5.55;;;4.53;;
55078;SDS011;55187;49.496;6.010;2022-08-19T12:08:41;5.72;;;4.05;;
55078;SDS011;55187;49.496;6.010;2022-08-19T12:11:08;5.13;;;3.38;;
55078;SDS011;55187;49.496;6.010;2022-08-19T12:13:35;6.43;;;3.78;;
55078;SDS011;55187;49.496;6.010;2022-08-19T12:18:34;10.18;;;5.28;;
55078;SDS011;55187;49.496;6.010;2022-08-19T12:21:00;7.90;;;5.60;;
55078;SDS011;55187;49.496;6.010;2022-08-19T12:23:27;7.82;;;4.88;;
55078;SDS011;55187;49.496;6.010;2022-08-19T12:25:53;5.78;;;3.15;;
55078;SDS011;55187;49.496;6.010;2022-08-19T12:28:21;6.93;;;4.63;;
55078;SDS011;55187;49.496;6.010;2022-08-19T12:30:49;6.82;;;3.97;;
55078;SDS011;55187;49.496;6.010;2022-08-19T12:33:17;7.18;;;3.78;;
55078;SDS011;55187;49.496;6.010;2022-08-19T12:35:49;9.02;;;4.63;;
55078;SDS011;55187;49.496;6.010;2022-08-19T12:38:16;7.18;;;3.85;;
55078;SDS011;55187;49.496;6.010;2022-08-19T12:40:45;7.45;;;3.72;;
55078;SDS011;55187;49.496;6.010;2022-08-19T12:43:12;6.25;;;4.13;;
55078;SDS011;55187;49.496;6.010;2022-08-19T12:45:39;10.68;;;5.50;;
55078;SDS011;55187;49.496;6.010;2022-08-19T12:48:05;7.25;;;4.38;;
55078;SDS011;55187;49.496;6.010;2022-08-19T12:50:32;6.93;;;4.43;;
55078;SDS011;55187;49.496;6.010;2022-08-19T12:52:58;6.25;;;3.85;;
55078;SDS011;55187;49.496;6.010;2022-08-19T12:55:25;7.30;;;4.03;;
55078;SDS011;55187;49.496;6.010;2022-08-19T12:57:53;11.10;;;4.50;;
55078;SDS011;55187;49.496;6.010;2022-08-19T13:00:21;5.03;;;4.05;;
55078;SDS011;55187;49.496;6.010;2022-08-19T13:02:50;5.05;;;2.63;;
55078;SDS011;55187;49.496;6.010;2022-08-19T13:05:18;6.75;;;4.53;;
55078;SDS011;55187;49.496;6.010;2022-08-19T13:07:49;3.50;;;2.38;;
55078;SDS011;55187;49.496;6.010;2022-08-19T13:10:18;7.25;;;4.47;;
55078;SDS011;55187;49.496;6.010;2022-08-19T13:12:47;4.05;;;2.70;;
55078;SDS011;55187;49.496;6.010;2022-08-19T13:15:16;4.63;;;3.20;;
55078;SDS011;55187;49.496;6.010;2022-08-19T13:17:47;4.75;;;2.80;;
55078;SDS011;55187;49.496;6.010;2022-08-19T13:20:15;6.35;;;3.65;;
55078;SDS011;55187;49.496;6.010;2022-08-19T13:22:45;4.55;;;2.80;;
55078;SDS011;55187;49.496;6.010;2022-08-19T13:25:12;9.85;;;4.07;;
55078;SDS011;55187;49.496;6.010;2022-08-19T13:27:39;4.50;;;2.55;;
55078;SDS011;55187;49.496;6.010;2022-08-19T13:30:07;3.92;;;2.60;;
55078;SDS011;55187;49.496;6.010;2022-08-19T13:32:38;4.47;;;2.63;;
55078;SDS011;55187;49.496;6.010;2022-08-19T13:35:08;3.53;;;2.55;;
55078;SDS011;55187;49.496;6.010;2022-08-19T13:37:34;5.93;;;3.58;;
55078;SDS011;55187;49.496;6.010;2022-08-19T13:40:04;3.40;;;1.92;;
55078;SDS011;55187;49.496;6.010;2022-08-19T13:42:31;3.47;;;2.70;;
55078;SDS011;55187;49.496;6.010;2022-08-19T13:44:58;3.20;;;2.28;;
55078;SDS011;55187;49.496;6.010;2022-08-19T13:47:24;3.70;;;1.73;;
55078;SDS011;55187;49.496;6.010;2022-08-19T13:49:51;3.85;;;2.25;;
55078;SDS011;55187;49.496;6.010;2022-08-19T13:52:17;2.85;;;1.70;;
55078;SDS011;55187;49.496;6.010;2022-08-19T13:54:44;2.95;;;1.80;;
55078;SDS011;55187;49.496;6.010;2022-08-19T13:57:10;3.55;;;2.08;;
55078;SDS011;55187;49.496;6.010;2022-08-19T13:59:38;4.47;;;2.53;;
55078;SDS011;55187;49.496;6.010;2022-08-19T14:02:04;4.18;;;2.17;;
55078;SDS011;55187;49.496;6.010;2022-08-19T14:04:31;4.40;;;1.50;;
55078;SDS011;55187;49.496;6.010;2022-08-19T14:06:57;1.45;;;1.08;;
55078;SDS011;55187;49.496;6.010;2022-08-19T14:09:23;2.65;;;1.50;;
55078;SDS011;55187;49.496;6.010;2022-08-19T14:11:50;1.60;;;1.00;;
55078;SDS011;55187;49.496;6.010;2022-08-19T14:14:17;2.03;;;1.13;;
55078;SDS011;55187;49.496;6.010;2022-08-19T14:16:43;2.22;;;1.27;;
55078;SDS011;55187;49.496;6.010;2022-08-19T14:19:09;2.30;;;1.42;;
55078;SDS011;55187;49.496;6.010;2022-08-19T14:21:40;1.33;;;0.73;;
55078;SDS011;55187;49.496;6.010;2022-08-19T14:24:10;1.55;;;0.90;;
55078;SDS011;55187;49.496;6.010;2022-08-19T14:26:43;1.25;;;0.75;;
55078;SDS011;55187;49.496;6.010;2022-08-19T14:29:10;1.35;;;0.98;;
55078;SDS011;55187;49.496;6.010;2022-08-19T14:31:37;4.45;;;1.10;;
55078;SDS011;55187;49.496;6.010;2022-08-19T14:34:06;1.00;;;0.90;;
55078;SDS011;55187;49.496;6.010;2022-08-19T14:36:33;1.00;;;0.70;;
55078;SDS011;55187;49.496;6.010;2022-08-19T14:39:02;3.22;;;1.95;;
55078;SDS011;55187;49.496;6.010;2022-08-19T14:41:35;2.75;;;1.77;;
55078;SDS011;55187;49.496;6.010;2022-08-19T14:44:02;2.35;;;1.40;;
55078;SDS011;55187;49.496;6.010;2022-08-19T14:46:29;1.58;;;0.80;;
55078;SDS011;55187;49.496;6.010;2022-08-19T14:48:58;1.52;;;0.88;;
55078;SDS011;55187;49.496;6.010;2022-08-19T14:51:34;2.15;;;0.85;;
55078;SDS011;55187;49.496;6.010;2022-08-19T14:54:01;0.63;;;0.52;;
55078;SDS011;55187;49.496;6.010;2022-08-19T14:56:29;0.75;;;0.50;;